Time;durP1;ratioP1;P1;durP2;ratioP2;P2;SDS_P1;SDS_P2;PMS_P1;PMS_P2;Temp;Humidity;BMP_temperature;BMP_pressure;BME280_temperature;BME280_humidity;BME280_pressure;Samples;Min_cycle;Max_cycle;Signal;HPM_P1;HPM_P2
2022/06/03 00:01:25;;;;;;;5.70;3.22;;;10.90;99.90;;;;;;5011793;28;20041;-48
2022/06/03 00:03:54;;;;;;;4.10;3.30;;;10.90;99.90;;;;;;5009173;28;20054;-50
2022/06/03 00:06:32;;;;;;;4.70;3.10;;;10.90;99.90;;;;;;5011493;28;20156;-50
2022/06/03 00:09:33;;;;;;;4.80;3.40;;;10.80;99.90;;;;;;5010453;28;20082;-49
2022/06/03 00:12:20;;;;;;;5.05;3.00;;;10.80;99.90;;;;;;5008921;28;20511;-49
2022/06/03 00:14:58;;;;;;;5.83;3.10;;;10.70;99.90;;;;;;5005912;28;20329;-49
2022/06/03 00:17:41;;;;;;;4.75;3.30;;;10.70;99.90;;;;;;5010811;28;20383;-53
2022/06/03 00:20:25;;;;;;;5.25;3.55;;;10.70;99.90;;;;;;5024630;28;20092;-49
2022/06/03 00:23:12;;;;;;;4.15;3.13;;;10.60;99.90;;;;;;5010683;28;20045;-49
2022/06/03 00:26:00;;;;;;;3.90;3.20;;;10.60;99.90;;;;;;5009757;28;20053;-49
2022/06/03 00:28:44;;;;;;;6.13;3.08;;;10.60;99.90;;;;;;5010763;28;20050;-47
2022/06/03 00:31:33;;;;;;;3.40;3.10;;;10.60;99.90;;;;;;5009683;28;20046;-49
2022/06/03 00:34:28;;;;;;;6.45;2.95;;;10.60;99.90;;;;;;5011345;28;20128;-49
2022/06/03 00:37:29;;;;;;;7.10;3.30;;;10.50;99.90;;;;;;5007700;28;20519;-49
2022/06/03 00:40:28;;;;;;;5.18;3.40;;;10.50;99.90;;;;;;5004199;28;20242;-48
2022/06/03 00:43:16;;;;;;;5.50;3.53;;;10.50;99.90;;;;;;5007162;28;20111;-50
2022/06/03 00:46:00;;;;;;;4.63;3.17;;;10.40;99.90;;;;;;5005056;28;20057;-49
2022/06/03 00:48:44;;;;;;;3.75;3.35;;;10.40;99.90;;;;;;5006269;28;20037;-51
2022/06/03 00:51:19;;;;;;;3.58;3.20;;;10.30;99.90;;;;;;4993006;28;20046;-50
2022/06/03 00:54:14;;;;;;;3.72;3.08;;;10.30;99.90;;;;;;5009476;28;20499;-49
2022/06/03 00:56:58;;;;;;;4.00;3.08;;;10.30;99.90;;;;;;5009045;28;20120;-52
2022/06/03 00:59:56;;;;;;;3.78;3.13;;;10.30;99.90;;;;;;5009452;28;20444;-50
2022/06/03 01:02:45;;;;;;;3.67;3.30;;;10.30;99.90;;;;;;5009486;28;20052;-47
2022/06/03 01:05:27;;;;;;;4.35;3.35;;;10.20;99.90;;;;;;5008791;28;20053;-48
2022/06/03 01:08:19;;;;;;;5.68;3.30;;;10.20;99.90;;;;;;5005653;28;20393;-48
2022/06/03 01:10:54;;;;;;;3.72;3.13;;;10.20;99.90;;;;;;5009079;28;20042;-49
2022/06/03 01:13:44;;;;;;;4.15;3.25;;;10.10;99.90;;;;;;5007442;28;20342;-47
2022/06/03 01:16:26;;;;;;;7.38;3.67;;;;;;;;;;5011484;28;20057;-48
2022/06/03 01:19:14;;;;;;;4.90;3.35;;;10.10;99.90;;;;;;5010877;28;20045;-47
2022/06/03 01:21:55;;;;;;;6.05;3.17;;;10.00;99.90;;;;;;5009794;28;20042;-48
2022/06/03 01:24:54;;;;;;;5.55;3.45;;;10.00;99.90;;;;;;5007416;28;20042;-50
2022/06/03 01:27:35;;;;;;;5.20;3.33;;;10.00;99.90;;;;;;5007208;28;20137;-48
2022/06/03 01:30:19;;;;;;;5.22;3.40;;;9.90;99.90;;;;;;5007315;28;20492;-52
2022/06/03 01:33:29;;;;;;;6.95;3.25;;;9.90;99.90;;;;;;5008804;28;20563;-52
2022/06/03 01:36:00;;;;;;;6.80;3.80;;;9.90;99.90;;;;;;5008855;28;20046;-49
2022/06/03 01:38:40;;;;;;;6.28;3.70;;;9.80;99.90;;;;;;5008203;28;20060;-50
2022/06/03 01:41:14;;;;;;;5.47;3.50;;;9.80;99.90;;;;;;5009612;28;20065;-48
2022/06/03 01:44:01;;;;;;;7.57;3.50;;;9.80;99.90;;;;;;5007566;28;20041;-48
2022/06/03 01:46:38;;;;;;;;;;;9.80;99.90;;;;;;5010902;28;20061;-51
2022/06/03 01:49:39;;;;;;;6.28;3.88;;;9.70;99.90;;;;;;5010150;28;19925;-48
2022/06/03 01:52:39;;;;;;;7.40;3.80;;;9.70;99.90;;;;;;5068602;22;20461;-83
2022/06/03 01:55:49;;;;;;;3.75;3.45;;;9.70;99.90;;;;;;5027692;28;20525;-83
2022/06/03 01:58:43;;;;;;;5.47;3.72;;;9.70;99.90;;;;;;5005161;28;20497;-83
2022/06/03 02:01:32;;;;;;;5.32;3.67;;;9.70;99.90;;;;;;5011843;28;20450;-83
2022/06/03 02:04:19;;;;;;;4.90;3.40;;;9.60;99.90;;;;;;5001672;28;20049;-83
2022/06/03 02:06:59;;;;;;;4.30;3.90;;;9.60;99.90;;;;;;5026186;28;20053;-83
2022/06/03 02:09:43;;;;;;;5.60;3.60;;;9.60;99.90;;;;;;5014693;28;20501;-83
2022/06/03 02:12:48;;;;;;;7.07;3.78;;;9.60;99.90;;;;;;5017200;28;20050;-83
2022/06/03 02:15:47;;;;;;;6.20;3.95;;;9.50;99.90;;;;;;5015084;28;20462;-83
2022/06/03 02:18:47;;;;;;;5.97;4.65;;;9.50;99.90;;;;;;5013600;28;20089;-82
2022/06/03 02:21:21;;;;;;;5.28;4.05;;;9.50;99.90;;;;;;5006798;28;20041;-83
2022/06/03 02:24:13;;;;;;;5.95;3.55;;;9.50;99.90;;;;;;5017431;28;20165;-82
2022/06/03 02:26:50;;;;;;;6.65;3.80;;;9.40;99.90;;;;;;4983880;28;20057;-83
2022/06/03 02:32:54;;;;;;;5.40;4.22;;;9.40;99.90;;;;;;5032101;28;20052;-83
2022/06/03 02:35:47;;;;;;;7.35;4.15;;;9.40;99.90;;;;;;5039403;28;20037;-83
2022/06/03 02:38:47;;;;;;;6.05;4.18;;;9.30;99.90;;;;;;5035620;28;20056;-83
2022/06/03 02:41:33;;;;;;;4.28;3.97;;;9.30;99.90;;;;;;5045532;28;20045;-83
2022/06/03 02:44:16;;;;;;;5.15;4.53;;;9.30;99.90;;;;;;5064139;28;20128;-84
2022/06/03 02:47:06;;;;;;;5.45;4.13;;;9.30;99.90;;;;;;5032266;28;21519;-83
2022/06/03 02:49:45;;;;;;;5.97;4.20;;;9.30;99.90;;;;;;5031337;28;20530;-83
2022/06/03 02:52:36;;;;;;;6.57;4.25;;;9.20;99.90;;;;;;5047613;28;20060;-82
2022/06/03 02:55:30;;;;;;;6.07;4.60;;;9.20;99.90;;;;;;5048566;28;20158;-83
2022/06/03 02:58:19;;;;;;;7.70;4.80;;;9.10;99.90;;;;;;5044312;28;20056;-82
2022/06/03 03:01:20;;;;;;;6.80;4.90;;;9.20;99.90;;;;;;5030697;28;20080;-82
2022/06/03 03:04:19;;;;;;;6.45;4.40;;;9.10;99.90;;;;;;5039685;28;20482;-82
2022/06/03 03:06:50;;;;;;;6.85;4.90;;;9.10;99.90;;;;;;5029516;28;20049;-82
2022/06/03 03:09:44;;;;;;;5.97;4.80;;;9.10;99.90;;;;;;5046714;28;20080;-82
2022/06/03 03:12:34;;;;;;;7.68;5.00;;;9.10;99.90;;;;;;5040142;28;20383;-82
2022/06/03 03:15:14;;;;;;;7.05;4.60;;;9.00;99.90;;;;;;5047953;28;20120;-82
2022/06/03 03:18:01;;;;;;;7.70;4.93;;;9.00;99.90;;;;;;5045168;28;20079;-82
2022/06/03 03:20:45;;;;;;;8.18;5.40;;;9.00;99.90;;;;;;5029862;28;20037;-82
2022/06/03 03:23:45;;;;;;;6.45;5.18;;;9.00;99.90;;;;;;5046540;28;20510;-83
2022/06/03 03:26:15;;;;;;;8.52;5.30;;;9.00;99.90;;;;;;5047190;28;20037;-82
2022/06/03 03:29:16;;;;;;;6.68;5.07;;;9.10;99.90;;;;;;5043239;28;20041;-83
2022/06/03 03:32:03;;;;;;;5.55;5.05;;;9.10;99.90;;;;;;5038637;28;20046;-82
2022/06/03 03:34:38;;;;;;;6.82;5.43;;;9.10;99.90;;;;;;5045543;28;20037;-83
2022/06/03 03:37:35;;;;;;;8.52;5.85;;;9.10;99.90;;;;;;5047290;28;20445;-84
2022/06/03 03:40:48;;;;;;;8.20;5.40;;;9.20;99.90;;;;;;5039892;28;20099;-84
2022/06/03 03:43:42;;;;;;;6.30;5.70;;;9.20;99.90;;;;;;5048779;28;20061;-84
2022/06/03 03:46:32;;;;;;;7.40;6.05;;;9.20;99.90;;;;;;5071836;28;20064;-84
2022/06/03 03:49:16;;;;;;;7.28;5.97;;;9.20;99.90;;;;;;5073758;28;20796;-84
2022/06/03 03:51:51;;;;;;;7.45;5.53;;;9.20;99.90;;;;;;5052151;28;20061;-83
2022/06/03 03:54:25;;;;;;;8.00;5.70;;;9.30;99.90;;;;;;5051529;28;20045;-84
2022/06/03 03:57:27;;;;;;;7.25;5.97;;;9.30;99.90;;;;;;5039272;28;20052;-84
2022/06/03 04:00:25;;;;;;;8.07;6.15;;;9.30;99.90;;;;;;5041061;28;20116;-84
2022/06/03 04:03:40;;;;;;;8.60;5.68;;;9.30;99.90;;;;;;5052754;28;20049;-84
2022/06/03 04:06:31;;;;;;;7.03;6.00;;;9.40;99.90;;;;;;5048634;28;20041;-84
2022/06/03 04:09:15;;;;;;;8.25;5.97;;;9.40;99.90;;;;;;5069046;28;20056;-84
2022/06/03 04:11:43;;;;;;;8.80;6.35;;;9.50;99.90;;;;;;5070595;28;20049;-84
2022/06/03 04:14:14;;;;;;;7.65;6.75;;;9.50;99.90;;;;;;5063546;28;20496;-85
2022/06/03 04:17:02;;;;;;;8.45;6.53;;;9.60;99.90;;;;;;5041564;28;20097;-84
2022/06/03 04:20:05;;;;;;;7.22;6.28;;;9.60;99.90;;;;;;5050133;28;20273;-84
2022/06/03 04:23:06;;;;;;;8.75;6.35;;;9.70;99.90;;;;;;5027608;28;20057;-84
2022/06/03 04:25:37;;;;;;;8.98;6.60;;;9.80;99.90;;;;;;5043841;28;20079;-84
2022/06/03 04:28:22;;;;;;;8.57;6.88;;;9.90;99.90;;;;;;5038232;28;20521;-83
2022/06/03 04:31:08;;;;;;;9.88;7.30;;;10.00;99.90;;;;;;5035286;28;20123;-83
2022/06/03 04:34:20;;;;;;;11.57;7.07;;;10.90;99.90;;;;;;5037795;28;20391;-83
2022/06/03 04:37:10;;;;;;;9.02;6.82;;;12.30;99.90;;;;;;5031936;28;20089;-83
2022/06/03 04:39:50;;;;;;;8.00;6.50;;;12.70;99.90;;;;;;5048687;28;20478;-82
2022/06/03 04:42:31;;;;;;;9.65;6.22;;;13.80;99.90;;;;;;5040748;28;20049;-83
2022/06/03 04:45:20;;;;;;;6.78;5.80;;;14.60;99.90;;;;;;5050636;28;20397;-84
2022/06/03 04:48:10;;;;;;;9.98;5.30;;;15.30;99.90;;;;;;5048626;28;20052;-84
2022/06/03 04:50:39;;;;;;;6.10;5.50;;;15.80;99.90;;;;;;5039191;28;20057;-84
2022/06/03 04:53:42;;;;;;;7.22;5.10;;;16.10;99.90;;;;;;5036436;28;20055;-85
2022/06/03 04:56:36;;;;;;;5.53;4.88;;;16.50;99.90;;;;;;5044157;28;20037;-84
2022/06/03 04:59:32;;;;;;;7.60;5.30;;;16.40;99.90;;;;;;5038479;28;20048;-84
2022/06/03 05:02:36;;;;;;;6.88;5.05;;;17.00;99.90;;;;;;5041777;28;20057;-84
2022/06/03 05:05:07;;;;;;;5.40;4.60;;;17.20;99.90;;;;;;5047658;28;20041;-85
2022/06/03 05:08:13;;;;;;;6.43;4.88;;;17.80;99.90;;;;;;5040147;28;20136;-85
2022/06/03 05:11:17;;;;;;;6.72;4.57;;;17.70;99.90;;;;;;5043345;28;20183;-85
2022/06/03 05:13:57;;;;;;;6.88;4.63;;;17.60;99.90;;;;;;5041465;28;20037;-85
2022/06/03 05:16:45;;;;;;;5.40;4.60;;;17.80;99.90;;;;;;5047322;28;20493;-85
2022/06/03 05:19:24;;;;;;;;;;;18.30;99.90;;;;;;5022647;28;20037;-84
2022/06/03 05:22:22;;;;;;;5.28;4.40;;;18.30;99.90;;;;;;5041526;28;19921;-88
2022/06/03 05:25:00;;;;;;;5.95;4.00;;;18.50;99.90;;;;;;5032540;28;20053;-90
2022/06/03 05:27:40;;;;;;;6.15;3.92;;;18.30;99.90;;;;;;5062354;28;20052;-92
2022/06/03 05:30:32;;;;;;;4.78;4.13;;;18.70;99.30;;;;;;5066455;28;20041;-92
2022/06/03 05:33:16;;;;;;;4.45;4.05;;;18.10;98.80;;;;;;5037118;28;20049;-89
2022/06/03 05:36:12;;;;;;;3.75;3.45;;;18.70;99.90;;;;;;5040253;28;20049;-88
2022/06/03 05:38:47;;;;;;;7.07;3.55;;;19.10;99.90;;;;;;5041481;28;20037;-86
2022/06/03 05:44:46;;;;;;;4.82;3.80;;;19.00;94.40;;;;;;5039471;28;20344;-90
2022/06/03 05:47:48;;;;;;;5.78;3.30;;;19.30;95.30;;;;;;5037285;28;20599;-89
2022/06/03 05:50:29;;;;;;;7.88;3.60;;;;;;;;;;5055592;28;20040;-86
2022/06/03 05:53:44;;;;;;;4.40;3.20;;;19.70;90.60;;;;;;5035990;28;20045;-84
2022/06/03 05:56:51;;;;;;;4.10;3.15;;;19.40;90.50;;;;;;5012475;28;20114;-84
2022/06/03 05:59:29;;;;;;;4.85;3.53;;;19.90;92.10;;;;;;5031720;28;20041;-84
2022/06/03 06:01:57;;;;;;;4.57;3.45;;;20.50;93.90;;;;;;5052841;28;20053;-84
2022/06/03 06:04:44;;;;;;;6.68;3.28;;;20.40;90.70;;;;;;5042275;28;20142;-84
2022/06/03 06:07:26;;;;;;;;;;;20.80;86.30;;;;;;5033194;28;20060;-85
2022/06/03 06:10:17;;;;;;;6.57;3.40;;;20.70;84.00;;;;;;5040462;28;19927;-84
2022/06/03 06:13:11;;;;;;;4.20;2.92;;;20.70;85.10;;;;;;5040815;28;20049;-84
2022/06/03 06:16:10;;;;;;;5.78;3.80;;;20.80;84.10;;;;;;5021732;28;20098;-85
2022/06/03 06:18:56;;;;;;;4.97;3.28;;;20.80;84.40;;;;;;5034214;28;20052;-85
2022/06/03 06:21:47;;;;;;;5.50;3.47;;;21.20;81.20;;;;;;5030917;28;20041;-86
2022/06/03 06:24:43;;;;;;;5.10;3.42;;;21.50;81.60;;;;;;5043417;28;20055;-86
2022/06/03 06:27:28;;;;;;;5.60;3.45;;;21.50;80.70;;;;;;5030171;28;20479;-86
2022/06/03 06:30:28;;;;;;;4.75;3.22;;;22.00;82.10;;;;;;5030684;28;20046;-86
2022/06/03 06:33:02;;;;;;;3.30;2.88;;;22.40;80.00;;;;;;5030758;28;20530;-86
2022/06/03 06:35:55;;;;;;;4.80;3.10;;;22.40;80.00;;;;;;5048184;28;20045;-87
2022/06/03 06:38:39;;;;;;;4.18;3.25;;;22.80;76.70;;;;;;5065750;28;20111;-87
2022/06/03 06:41:14;;;;;;;3.47;3.00;;;22.20;72.40;;;;;;5065097;28;20041;-86
2022/06/03 06:44:28;;;;;;;3.63;3.30;;;22.10;76.00;;;;;;5052590;28;20099;-85
2022/06/03 06:47:16;;;;;;;5.50;3.00;;;21.70;74.40;;;;;;5029425;28;20088;-87
2022/06/03 06:49:49;;;;;;;6.53;3.60;;;22.10;74.10;;;;;;5046686;28;20056;-85
2022/06/03 06:52:47;;;;;;;4.72;2.97;;;21.30;74.50;;;;;;5023361;28;20122;-86
2022/06/03 06:55:25;;;;;;;4.65;3.33;;;21.30;77.00;;;;;;5040426;28;20049;-87
2022/06/03 06:57:55;;;;;;;4.53;2.95;;;21.30;77.30;;;;;;5028802;28;20495;-88
2022/06/03 07:00:25;;;;;;;5.22;3.08;;;21.20;77.90;;;;;;5057969;28;22037;-87
2022/06/03 07:03:17;;;;;;;8.60;3.50;;;21.10;81.00;;;;;;5047561;28;20103;-86
2022/06/03 07:05:59;;;;;;;4.63;3.10;;;20.70;81.80;;;;;;5039530;28;20041;-86
2022/06/03 07:08:44;;;;;;;4.40;3.20;;;21.10;83.30;;;;;;5043999;28;20127;-86
2022/06/03 07:11:19;;;;;;;4.88;3.13;;;21.30;83.20;;;;;;5064757;28;20056;-86
2022/06/03 07:14:14;;;;;;;4.82;3.00;;;21.40;84.50;;;;;;5047479;28;20045;-86
2022/06/03 07:20:11;;;;;;;3.25;3.00;;;21.40;79.60;;;;;;5049926;28;20051;-85
2022/06/03 07:23:15;;;;;;;3.85;2.80;;;21.30;79.10;;;;;;5043574;28;20045;-86
2022/06/03 07:25:54;;;;;;;6.78;3.50;;;21.10;81.40;;;;;;5047898;28;20045;-86
2022/06/03 07:28:38;;;;;;;4.85;3.20;;;21.10;82.30;;;;;;5053434;28;20041;-86
2022/06/03 07:31:13;;;;;;;5.00;3.05;;;20.90;83.40;;;;;;5049667;28;20045;-86
2022/06/03 07:33:57;;;;;;;4.25;3.00;;;21.20;82.70;;;;;;5051340;28;20500;-84
2022/06/03 07:36:51;;;;;;;4.93;3.00;;;20.60;86.90;;;;;;5034328;28;20046;-86
2022/06/03 07:39:37;;;;;;;4.85;2.85;;;20.70;87.80;;;;;;5051597;28;20045;-86
2022/06/03 07:42:24;;;;;;;3.72;3.00;;;20.60;89.50;;;;;;5052731;28;20056;-85
2022/06/03 07:45:26;;;;;;;5.65;3.10;;;20.40;91.80;;;;;;5041512;28;20502;-85
2022/06/03 07:47:54;;;;;;;4.30;3.05;;;19.60;93.70;;;;;;5029844;28;20045;-85
2022/06/03 07:50:21;;;;;;;3.10;2.90;;;19.50;93.70;;;;;;5035555;28;20084;-85
2022/06/03 07:53:05;;;;;;;3.55;2.85;;;19.10;97.10;;;;;;5047555;28;20052;-86
2022/06/03 07:55:31;;;;;;;4.60;2.90;;;19.30;99.40;;;;;;5037144;28;20068;-87
2022/06/03 07:58:06;;;;;;;5.03;2.90;;;19.30;97.80;;;;;;5040255;28;20529;-86
2022/06/03 08:00:37;;;;;;;5.05;2.95;;;19.00;99.10;;;;;;5042196;28;20041;-87
2022/06/03 08:03:21;;;;;;;3.95;3.00;;;19.30;99.90;;;;;;5036509;28;20593;-85
2022/06/03 08:05:59;;;;;;;5.25;3.45;;;19.30;99.90;;;;;;5044989;28;20041;-85
2022/06/03 08:11:24;;;;;;;5.60;3.30;;;19.30;99.90;;;;;;5046240;28;20084;-87
2022/06/03 08:13:55;;;;;;;4.90;2.92;;;19.40;99.90;;;;;;5046702;28;20063;-84
2022/06/03 08:16:39;;;;;;;5.13;2.95;;;19.50;99.90;;;;;;5028563;28;20042;-86
2022/06/03 08:19:27;;;;;;;4.18;3.42;;;19.50;99.90;;;;;;5062090;28;20047;-85
2022/06/03 08:21:59;;;;;;;3.45;3.15;;;19.60;99.90;;;;;;5043132;28;20038;-88
2022/06/03 08:24:38;;;;;;;4.30;3.00;;;19.60;99.60;;;;;;5042756;28;20037;-91
2022/06/03 08:27:09;;;;;;;5.78;3.13;;;19.50;99.90;;;;;;5028957;28;20044;-83
2022/06/03 08:29:40;;;;;;;4.15;3.00;;;19.80;99.90;;;;;;5030732;28;20506;-89
2022/06/03 08:32:15;;;;;;;3.42;2.85;;;19.70;99.80;;;;;;5045400;28;20054;-89
2022/06/03 08:34:47;;;;;;;3.40;2.92;;;19.50;99.60;;;;;;5069052;28;20024;-86
2022/06/03 08:37:18;;;;;;;5.32;3.30;;;19.60;99.90;;;;;;5063610;28;20025;-89
2022/06/03 08:39:46;;;;;;;4.93;2.90;;;19.90;99.90;;;;;;5068720;28;20041;-88
2022/06/03 08:42:21;;;;;;;4.68;2.60;;;19.70;97.30;;;;;;5043638;28;20048;-95
2022/06/03 08:45:08;;;;;;;3.85;2.88;;;20.10;98.40;;;;;;5039893;28;20040;-86
2022/06/03 08:47:42;;;;;;;5.53;3.30;;;20.20;97.80;;;;;;5045465;28;20056;-87
2022/06/03 08:50:27;;;;;;;4.35;2.80;;;20.20;98.30;;;;;;5039542;28;20512;-85
2022/06/03 08:53:14;;;;;;;3.45;2.75;;;20.40;98.30;;;;;;5044432;28;20048;-86
2022/06/03 08:55:54;;;;;;;3.80;3.08;;;20.50;96.60;;;;;;5022334;28;20041;-87
2022/06/03 08:58:42;;;;;;;5.32;3.13;;;20.40;96.20;;;;;;5060452;28;20040;-87
2022/06/03 09:01:34;;;;;;;4.30;3.33;;;20.70;98.50;;;;;;5064295;28;20049;-86
2022/06/03 09:04:21;;;;;;;6.10;3.25;;;20.90;96.10;;;;;;5056570;28;20350;-87
2022/06/03 09:07:01;;;;;;;4.07;2.92;;;20.80;96.10;;;;;;5044611;28;20045;-89
2022/06/03 09:09:52;;;;;;;3.65;3.17;;;21.00;94.70;;;;;;5050084;28;20037;-94
2022/06/03 09:12:23;;;;;;;3.38;3.08;;;21.20;93.80;;;;;;5055642;28;20093;-93
2022/06/03 09:14:52;;;;;;;4.03;3.13;;;20.80;94.50;;;;;;5049311;28;20041;-88
2022/06/03 09:17:48;;;;;;;4.10;3.33;;;21.10;93.30;;;;;;5045492;28;20033;-91
2022/06/03 09:20:31;;;;;;;5.28;3.63;;;21.10;93.40;;;;;;5069701;28;20053;-92
2022/06/03 09:23:05;;;;;;;6.15;3.28;;;21.10;93.40;;;;;;5052964;28;20048;-92
2022/06/03 09:25:33;;;;;;;4.30;2.75;;;20.90;92.30;;;;;;5053309;28;20482;-93
2022/06/03 09:28:05;;;;;;;5.63;3.28;;;21.10;93.00;;;;;;5052551;28;20044;-91
2022/06/03 09:30:37;;;;;;;4.75;3.45;;;21.10;92.10;;;;;;5052992;28;20040;-92
2022/06/03 09:33:05;;;;;;;3.95;3.15;;;21.20;92.20;;;;;;5044769;28;20397;-90
2022/06/03 09:35:32;;;;;;;2.97;2.60;;;21.40;92.60;;;;;;5030405;28;20045;-91
2022/06/03 09:38:01;;;;;;;4.13;2.80;;;21.40;92.00;;;;;;5053061;28;20105;-91
2022/06/03 09:40:34;;;;;;;4.13;3.30;;;21.50;91.60;;;;;;5042379;28;20076;-92
2022/06/03 09:43:05;;;;;;;5.93;3.10;;;21.30;90.60;;;;;;5034889;28;20064;-91
2022/06/03 09:45:31;;;;;;;3.25;2.67;;;21.50;90.70;;;;;;5055503;28;20048;-91
2022/06/03 09:48:01;;;;;;;3.55;2.83;;;21.50;91.40;;;;;;5045188;28;20045;-89
2022/06/03 09:50:27;;;;;;;5.68;3.58;;;21.80;87.70;;;;;;5031395;28;20061;-91
2022/06/03 09:53:02;;;;;;;2.95;2.42;;;21.70;86.40;;;;;;5038598;28;20203;-90
2022/06/03 09:55:41;;;;;;;2.65;2.38;;;21.80;83.70;;;;;;5043373;28;20040;-89
2022/06/03 09:58:12;;;;;;;2.97;2.72;;;21.70;84.90;;;;;;5051350;28;20067;-90
2022/06/03 10:00:48;;;;;;;3.88;3.00;;;21.70;81.80;;;;;;5050783;28;20052;-91
2022/06/03 10:03:15;;;;;;;5.88;2.75;;;21.70;83.50;;;;;;5049407;28;20045;-93
2022/06/03 10:05:46;;;;;;;3.30;3.00;;;21.80;85.10;;;;;;5066527;28;20224;-91
2022/06/03 10:08:12;;;;;;;3.40;3.10;;;21.70;84.50;;;;;;5067969;28;20569;-90
2022/06/03 10:13:23;;;;;;;2.78;2.58;;;21.60;85.30;;;;;;5045787;28;20052;-90
2022/06/03 10:16:03;;;;;;;2.97;2.10;;;22.00;85.60;;;;;;5047349;28;20448;-90
2022/06/03 10:18:49;;;;;;;3.47;2.55;;;22.10;85.50;;;;;;5058712;28;20041;-90
2022/06/03 10:21:14;;;;;;;5.07;2.40;;;22.20;83.00;;;;;;5035580;28;20041;-89
2022/06/03 10:23:43;;;;;;;3.83;2.80;;;22.40;83.50;;;;;;5032874;28;20244;-91
2022/06/03 10:26:10;;;;;;;7.28;2.72;;;22.40;80.00;;;;;;5038750;28;20048;-91
2022/06/03 10:28:40;;;;;;;;;;;22.10;78.80;;;;;;5034243;28;20052;-89
2022/06/03 10:31:12;;;;;;;3.60;2.70;;;22.30;79.40;;;;;;5047366;28;19916;-89
2022/06/03 10:33:38;;;;;;;3.97;2.50;;;22.30;79.10;;;;;;5058601;28;20128;-89
2022/06/03 10:36:05;;;;;;;4.30;2.95;;;22.60;78.20;;;;;;5036491;28;20147;-89
2022/06/03 10:38:33;;;;;;;3.10;2.65;;;22.40;76.60;;;;;;5048416;28;20184;-89
2022/06/03 10:41:09;;;;;;;3.33;2.50;;;22.20;79.40;;;;;;5035774;28;20048;-90
2022/06/03 10:43:36;;;;;;;2.47;2.20;;;22.40;80.70;;;;;;5036693;28;20044;-90
2022/06/03 10:46:17;;;;;;;6.55;3.30;;;22.60;79.40;;;;;;5045928;28;20462;-89
2022/06/03 10:48:44;;;;;;;2.70;2.42;;;22.50;75.20;;;;;;5042655;28;20154;-89
2022/06/03 10:51:17;;;;;;;;;;;22.70;77.60;;;;;;5043364;28;20053;-89
2022/06/03 11:02:36;;;;;;;2.45;2.22;;;22.90;73.30;;;;;;5048488;28;20056;-84
2022/06/03 11:05:23;;;;;;;2.38;2.00;;;23.00;71.60;;;;;;5044519;28;20049;-82
2022/06/03 11:07:59;;;;;;;;;;;23.00;72.10;;;;;;5055381;28;20049;-83
2022/06/03 11:10:34;;;;;;;3.33;2.10;;;23.20;73.20;;;;;;5036250;28;19932;-83
2022/06/03 11:13:02;;;;;;;2.42;1.90;;;23.10;72.10;;;;;;5052331;28;20122;-83
2022/06/03 11:15:31;;;;;;;3.38;2.17;;;23.10;73.00;;;;;;5052318;28;20132;-83
2022/06/03 11:17:59;;;;;;;4.15;2.47;;;23.10;73.80;;;;;;5051279;28;20041;-83
2022/06/03 11:20:35;;;;;;;1.90;1.80;;;23.20;71.00;;;;;;5053868;28;20070;-83
2022/06/03 11:23:03;;;;;;;4.10;2.35;;;23.50;72.00;;;;;;5053307;28;20041;-83
2022/06/03 11:25:31;;;;;;;5.13;2.60;;;23.20;68.20;;;;;;5068532;28;20120;-83
2022/06/03 11:27:59;;;;;;;2.42;2.22;;;23.00;69.10;;;;;;5048913;28;20677;-83
2022/06/03 11:30:34;;;;;;;2.95;2.15;;;22.90;68.90;;;;;;5057310;28;20053;-83
2022/06/03 11:33:11;;;;;;;2.33;1.80;;;23.00;68.70;;;;;;5050040;28;20047;-83
2022/06/03 11:35:55;;;;;;;3.15;2.10;;;23.20;68.10;;;;;;5051203;28;20106;-83
2022/06/03 11:38:41;;;;;;;2.78;2.42;;;23.10;68.30;;;;;;5066784;28;20041;-83
2022/06/03 11:41:14;;;;;;;3.30;2.08;;;22.90;67.60;;;;;;5053280;28;20494;-83
2022/06/03 11:43:48;;;;;;;2.72;1.95;;;23.10;67.50;;;;;;5035117;28;20053;-82
2022/06/03 11:46:36;;;;;;;2.42;1.77;;;23.20;68.20;;;;;;5050596;28;20041;-82
2022/06/03 11:49:03;;;;;;;3.85;1.95;;;23.40;68.10;;;;;;5051741;28;20044;-83
2022/06/03 11:51:29;;;;;;;2.53;2.08;;;23.40;64.60;;;;;;5050130;28;20124;-83
2022/06/03 11:53:55;;;;;;;2.45;2.25;;;23.40;66.60;;;;;;5052794;28;20563;-83
2022/06/03 11:56:25;;;;;;;2.80;2.50;;;23.40;67.30;;;;;;5051630;28;20083;-83
2022/06/03 11:59:07;;;;;;;5.18;2.50;;;23.50;66.70;;;;;;5051563;28;20044;-83
2022/06/03 12:01:42;;;;;;;2.53;2.08;;;23.10;66.60;;;;;;5049162;28;20091;-83
2022/06/03 12:04:32;;;;;;;3.35;1.75;;;22.90;67.00;;;;;;5066458;28;20049;-83
2022/06/03 12:07:03;;;;;;;2.63;2.08;;;23.30;68.20;;;;;;5031736;28;20049;-83
2022/06/03 12:09:51;;;;;;;2.03;1.83;;;23.20;65.60;;;;;;5065005;28;20082;-83
2022/06/03 12:15:54;;;;;;;3.75;2.20;;;23.40;66.50;;;;;;5032695;28;20057;-83
2022/06/03 12:18:32;;;;;;;1.92;1.70;;;23.30;64.60;;;;;;5021707;28;20509;-83
2022/06/03 12:21:13;;;;;;;4.78;1.70;;;23.10;64.80;;;;;;5034675;28;20339;-83
2022/06/03 12:23:41;;;;;;;2.70;1.63;;;23.40;65.80;;;;;;5050961;28;20435;-83
2022/06/03 12:26:27;;;;;;;1.77;1.67;;;23.40;64.80;;;;;;5052733;28;20077;-83
2022/06/03 12:29:09;;;;;;;4.28;1.60;;;23.20;63.40;;;;;;5052233;28;20136;-84
2022/06/03 12:31:43;;;;;;;5.60;1.70;;;23.10;62.80;;;;;;5050695;28;20402;-83
2022/06/03 12:34:10;;;;;;;2.30;1.70;;;23.30;65.00;;;;;;5052110;28;20048;-83
2022/06/03 12:36:47;;;;;;;3.83;2.03;;;23.40;63.80;;;;;;5050555;28;20045;-82
2022/06/03 12:39:19;;;;;;;2.70;1.67;;;23.40;62.70;;;;;;5051113;28;20048;-83
2022/06/03 12:41:44;;;;;;;2.25;1.70;;;23.40;63.40;;;;;;5033858;28;20049;-82
2022/06/03 12:44:38;;;;;;;5.15;2.08;;;23.50;62.60;;;;;;5052365;28;20040;-83
2022/06/03 12:47:25;;;;;;;2.13;1.85;;;23.80;64.80;;;;;;5051708;28;20047;-83
2022/06/03 12:50:14;;;;;;;2.13;1.90;;;23.80;62.40;;;;;;5051599;28;20535;-83
2022/06/03 12:52:42;;;;;;;1.98;1.88;;;23.80;62.50;;;;;;5039953;28;20060;-83
2022/06/03 12:55:33;;;;;;;3.17;1.65;;;23.80;61.50;;;;;;5063949;28;20124;-83
2022/06/03 12:57:59;;;;;;;3.22;1.85;;;23.80;61.60;;;;;;5031871;28;20049;-83
2022/06/03 13:00:28;;;;;;;3.17;1.83;;;23.70;61.10;;;;;;5031792;28;20108;-83
2022/06/03 13:03:06;;;;;;;1.65;1.55;;;23.80;61.70;;;;;;5050282;28;20101;-83
2022/06/03 13:05:37;;;;;;;4.40;1.33;;;23.70;60.80;;;;;;5051578;28;20049;-83
2022/06/03 13:08:20;;;;;;;2.17;1.70;;;24.00;63.20;;;;;;5050310;28;20036;-83
2022/06/03 13:11:05;;;;;;;1.80;1.67;;;24.10;62.20;;;;;;5050774;28;20045;-83
2022/06/03 13:13:32;;;;;;;2.60;1.50;;;23.90;61.00;;;;;;5036787;28;20617;-83
2022/06/03 13:16:29;;;;;;;2.33;1.55;;;24.00;60.90;;;;;;5063462;28;20046;-83
2022/06/03 13:19:19;;;;;;;2.47;1.73;;;24.00;61.00;;;;;;5031086;28;20154;-83
2022/06/03 13:21:56;;;;;;;1.85;1.40;;;23.90;59.60;;;;;;5031120;28;20041;-83
2022/06/03 13:24:24;;;;;;;2.03;1.55;;;24.20;60.90;;;;;;5048022;28;20406;-84
2022/06/03 13:26:58;;;;;;;1.90;1.67;;;23.60;58.80;;;;;;5055071;28;20600;-84
2022/06/03 13:29:49;;;;;;;2.13;1.80;;;23.70;60.00;;;;;;5042627;28;20040;-85
2022/06/03 13:32:17;;;;;;;1.95;1.85;;;23.80;60.50;;;;;;5070297;28;20093;-84
2022/06/03 13:34:44;;;;;;;2.65;1.40;;;23.60;59.10;;;;;;5066077;28;20100;-85
2022/06/03 13:37:53;;;;;;;1.67;1.45;;;23.60;59.80;;;;;;5063743;28;20049;-85
2022/06/03 13:40:33;;;;;;;2.35;1.52;;;23.60;59.20;;;;;;5035852;28;20091;-83
2022/06/03 13:42:58;;;;;;;2.42;1.33;;;23.60;59.50;;;;;;5050056;28;20457;-84
2022/06/03 13:45:41;;;;;;;3.40;1.65;;;23.50;59.30;;;;;;5049038;28;20045;-89
2022/06/03 13:48:14;;;;;;;1.88;1.33;;;23.30;59.10;;;;;;5049667;28;20080;-86
2022/06/03 13:50:40;;;;;;;1.85;1.70;;;23.40;59.60;;;;;;5033865;28;20067;-85
2022/06/03 13:53:10;;;;;;;2.33;1.67;;;23.50;59.50;;;;;;5049184;28;20049;-85
2022/06/03 13:55:38;;;;;;;1.90;1.50;;;23.70;60.00;;;;;;5061854;28;20081;-85
2022/06/03 13:58:23;;;;;;;1.77;1.50;;;23.70;60.80;;;;;;5064543;28;20028;-84
2022/06/03 14:00:48;;;;;;;1.67;1.20;;;23.50;59.40;;;;;;5073164;28;20056;-86
2022/06/03 14:03:16;;;;;;;1.50;1.40;;;23.60;58.50;;;;;;5032681;28;20045;-87
2022/06/03 14:05:56;;;;;;;2.13;1.33;;;23.60;59.30;;;;;;5051424;28;20037;-90
2022/06/03 14:08:34;;;;;;;1.95;1.20;;;23.90;61.20;;;;;;5043275;28;20456;-89
2022/06/03 14:11:20;;;;;;;1.80;1.70;;;24.00;60.50;;;;;;5042193;28;20061;-87
2022/06/03 14:13:54;;;;;;;2.83;1.50;;;24.30;61.30;;;;;;5043087;28;20578;-88
2022/06/03 14:16:49;;;;;;;1.80;1.45;;;24.30;59.90;;;;;;5024083;28;20350;-89
2022/06/03 14:19:27;;;;;;;1.52;1.27;;;24.20;60.80;;;;;;5044059;28;20075;-88
2022/06/03 14:21:54;;;;;;;3.20;1.50;;;23.90;59.30;;;;;;5045125;28;20068;-89
2022/06/03 14:24:22;;;;;;;2.67;1.67;;;24.10;61.60;;;;;;5046498;28;20037;-89
2022/06/03 14:26:53;;;;;;;2.50;1.60;;;24.10;59.90;;;;;;5022333;28;20123;-87
2022/06/03 14:29:29;;;;;;;2.33;1.65;;;24.00;59.00;;;;;;5028154;28;20498;-89
2022/06/03 14:32:06;;;;;;;4.13;1.60;;;24.20;59.10;;;;;;5015153;28;20084;-89
2022/06/03 14:34:38;;;;;;;3.30;1.83;;;24.30;58.30;;;;;;5040955;28;20045;-88